Terminal Aerodrome Forecast
Issued by NWS Twin Cities, MN

Home | Current Version | Previous Version | Text Only | Print | Product List | Glossary On
Versions: 1 2 3 4 5 6 7 8 9 10 11 12 13 14 15 16 17
005
FTUS43 KMPX 261728
TAFSTC
TAF
KSTC 261728Z 2618/2718 26007KT P6SM SKC
     FM270000 VRB03KT P6SM SCT250
     FM271300 09004KT P6SM -SHRA BKN050 OVC100 PROB30 2714/2718
      -TSRA OVC020CB=

USA.gov is the U.S. government's official web portal to all federal, state and local government web resources and services.